Beverly, KS

7:16 AM CDT on September 30, 2014 (GMT -0500)
Salina Municipal | Change Station
CLOSE
Current Station
Airport
Location: Salina,
Elevation: 1286 ft
Nearby Weather Stations

Elev 1286 ft 38.80 °N, 97.65 °W | Updated 23 minutes ago

Overcast
Overcast
68 °F
Feels Like 68 °F
N
10
Wind Variable Wind from South

Today
High -- | Low -- °F
--% Chance of Precip.
Yesterday
High -- | Low -- °F
Precip. -- in
7:27 AM 7:16 PM
Waxing Crescent, 36% visible
Pressure 29.83 in
Visibility 10.0 miles
Clouds Overcast 8500 ft
Dew Point 58 °F
Humidity 70%
Rainfall 0.00 in
Snow Depth Not available.
UV 0 out of 12
Pollen 3.00 out of 12
Air Quality Not available.
Flu Activity Not available.
METAR KSLN 301153Z 17009KT 10SM OVC085 20/14 A2986 RMK AO2 SLP099 T02000144 10206 20189 58009

More Conditions Fewer Conditions

Pressure 29.83 in
Visibility 10.0 miles
Clouds Overcast 8500 ft
Dew Point 58 °F
Humidity 70%
Rainfall 0.00 in
Snow Depth Not available.
UV 0 out of 12
Pollen 3.00 out of 12
Air Quality Not available.
Flu Activity Not available.
METAR KSLN 301153Z 17009KT 10SM OVC085 20/14 A2986 RMK AO2 SLP099 T02000144 10206 20189 58009

More Conditions Fewer Conditions

10-Day Weather Forecast

Almanac

Astronomy

Sep. 30, 2014 Rise Set
Actual Time 7:27 AM CDT 7:16 PM CDT
Civil Twilight 7:00 AM CDT 7:42 PM CDT
Nautical Twilight 6:29 AM CDT 8:13 PM CDT
Astronomical Twilight 5:58 AM CDT 8:44 PM CDT
Moon 1:34 PM CDT 11:50 PM CDT
Length of Visible Light 12h 42m
Length of Day
11h 49m
Tomorrow will be 2m 31s shorter.
Waxing Crescent, 36% of the Moon is Illuminated
Today
Waxing Crescent
Oct 1
First Quarter
Oct 8
Full
Oct 15
Last Quarter
Oct 23
New

Today's Extremes

State Highs State Lows

Community

WunderPhotos

Upload Photos

1,757,621 photos uploaded!

Nearby

Snow Depth

Station Depth Elevation
No new snow has been reported.

Earthquake Activity

City Distance Mag. Time & Date
No recent earthquake activity has been reported nearby.
Minimum magnitude displayed is 2.5.

Coastal Water Temperatures

Place Temperature
No Stations Reporting

Nearby Weather Stations